Time;durP1;ratioP1;P1;durP2;ratioP2;P2;SDS_P1;SDS_P2;PMS_P1;PMS_P2;Temp;Humidity;BMP_temperature;BMP_pressure;BME280_temperature;BME280_humidity;BME280_pressure;Samples;Min_cycle;Max_cycle;Signal;HPM_P1;HPM_P2
2023/01/03 00:01:10;;;;;;;9.80;3.60;;;;;;;6.35;98.77;102268.72;5059120;23;20233;-76
2023/01/03 00:03:36;;;;;;;14.07;3.53;;;;;;;6.32;98.51;102269.41;5007604;28;20233;-76
2023/01/03 00:06:01;;;;;;;8.93;3.23;;;;;;;6.29;98.46;102281.94;5006947;28;20199;-76
2023/01/03 00:08:28;;;;;;;9.93;3.20;;;;;;;6.24;98.33;102284.97;4996410;28;20224;-76
2023/01/03 00:10:53;;;;;;;10.33;3.33;;;;;;;6.21;98.56;102289.91;4998485;28;20269;-76
2023/01/03 00:13:19;;;;;;;7.93;3.13;;;;;;;6.18;99.16;102298.19;4988390;28;20195;-74
2023/01/03 00:15:45;;;;;;;11.67;3.93;;;;;;;6.14;99.17;102303.03;4995636;28;20289;-76
2023/01/03 00:18:11;;;;;;;10.67;3.40;;;;;;;6.10;99.58;102301.97;4994239;28;20661;-76
2023/01/03 00:20:36;;;;;;;8.00;2.93;;;;;;;6.14;98.84;102315.75;4998120;28;20202;-75
2023/01/03 00:23:02;;;;;;;9.70;3.53;;;;;;;6.15;99.42;102318.38;4994759;28;20195;-76
2023/01/03 00:25:28;;;;;;;11.30;4.10;;;;;;;6.14;99.68;102315.75;4999343;28;20290;-75
2023/01/03 00:27:53;;;;;;;11.40;4.10;;;;;;;6.12;99.97;102314.78;5019934;28;20287;-75
2023/01/03 00:30:19;;;;;;;8.63;4.07;;;;;;;6.10;100.00;102312.13;5002675;28;20215;-76
2023/01/03 00:32:45;;;;;;;8.83;4.10;;;;;;;6.04;99.73;102314.28;5005964;28;20191;-75
2023/01/03 00:35:12;;;;;;;12.90;3.80;;;;;;;5.99;100.00;102328.38;5000474;28;20213;-75
2023/01/03 00:37:37;;;;;;;7.87;4.00;;;;;;;5.96;100.00;102328.22;5006138;28;20219;-76
2023/01/03 00:40:03;;;;;;;14.03;3.97;;;;;;;5.93;100.00;102339.84;4994555;28;20263;-74
2023/01/03 00:43:27;;;;;;;11.37;4.33;;;;;;;5.93;100.00;102338.19;5016458;28;20190;-75
2023/01/03 00:45:14;;;;;;;10.60;4.13;;;;;;;5.92;100.00;102345.72;5012173;28;20206;-75
2023/01/03 00:47:40;;;;;;;9.27;3.73;;;;;;;5.94;100.00;102356.88;5018840;28;20240;-75
2023/01/03 00:50:06;;;;;;;9.00;4.07;;;;;;;5.96;100.00;102355.28;5000280;28;20229;-75
2023/01/03 00:52:31;;;;;;;9.60;3.93;;;;;;;5.96;100.00;102356.19;4996721;28;20249;-73
2023/01/03 00:54:56;;;;;;;7.80;4.30;;;;;;;5.97;100.00;102364.66;4996993;28;20546;-76
2023/01/03 00:57:22;;;;;;;9.57;3.60;;;;;;;5.99;100.00;102360.56;5017180;28;20708;-76
2023/01/03 00:59:47;;;;;;;8.33;3.90;;;;;;;6.00;100.00;102365.75;5012450;28;20188;-75
2023/01/03 01:02:13;;;;;;;13.03;4.67;;;;;;;6.01;100.00;102362.44;5010458;28;20223;-76
2023/01/03 01:04:38;;;;;;;11.37;3.90;;;;;;;6.02;100.00;102365.81;5010015;28;20206;-75
2023/01/03 01:07:04;;;;;;;10.70;3.57;;;;;;;6.01;100.00;102375.13;5013015;28;20203;-75
2023/01/03 01:09:33;;;;;;;10.87;3.67;;;;;;;6.01;100.00;102376.78;5014207;28;20218;-76
2023/01/03 01:11:59;;;;;;;11.00;4.33;;;;;;;6.02;100.00;102371.81;4999954;28;20202;-76
2023/01/03 01:14:26;;;;;;;13.43;4.17;;;;;;;6.05;100.00;102386.38;4989999;28;20209;-76
2023/01/03 01:16:58;;;;;;;17.37;3.70;;;;;;;6.08;100.00;102381.47;5017651;28;20237;-74
2023/01/03 01:19:30;;;;;;;9.03;3.70;;;;;;;6.07;100.00;102387.31;5018685;28;20190;-76
2023/01/03 01:21:55;;;;;;;8.97;3.50;;;;;;;6.06;100.00;102386.47;4998351;28;20720;-76
2023/01/03 01:24:21;;;;;;;10.63;3.97;;;;;;;6.05;100.00;102388.91;5002069;28;20199;-75
2023/01/03 01:26:47;;;;;;;6.73;3.73;;;;;;;6.02;100.00;102392.13;5020295;28;20268;-74
2023/01/03 01:29:14;;;;;;;7.93;3.40;;;;;;;5.99;99.72;102397.03;5022044;28;20256;-75
2023/01/03 01:31:40;;;;;;;7.70;3.00;;;;;;;6.00;99.81;102406.44;5015913;28;20202;-74
2023/01/03 01:34:06;;;;;;;8.83;3.33;;;;;;;5.98;99.47;102418.16;5005034;28;20183;-75
2023/01/03 01:36:33;;;;;;;10.87;4.10;;;;;;;5.98;100.00;102409.66;5002355;28;20766;-73
2023/01/03 01:39:03;;;;;;;7.47;3.60;;;;;;;5.97;99.78;102413.84;5013438;28;20194;-74
2023/01/03 01:44:39;;;;;;;11.53;4.37;;;;;;;5.94;99.73;102418.72;5013214;28;20275;-76
2023/01/03 01:47:29;;;;;;;12.83;4.83;;;;;;;5.91;100.00;102421.09;5005245;28;20222;-76
2023/01/03 01:50:17;;;;;;;13.00;4.63;;;;;;;5.83;100.00;102424.81;5002143;28;20242;-76
2023/01/03 01:52:54;;;;;;;11.07;4.87;;;;;;;5.86;100.00;102426.66;4996894;28;20211;-75
2023/01/03 01:55:25;;;;;;;13.10;5.03;;;;;;;5.82;100.00;102428.16;4997579;28;20272;-74
2023/01/03 01:57:52;;;;;;;13.63;5.40;;;;;;;5.79;100.00;102437.19;5007472;28;20214;-75
2023/01/03 02:00:17;;;;;;;13.23;5.07;;;;;;;5.74;100.00;102431.81;4994324;28;20207;-76
2023/01/03 02:02:46;;;;;;;12.43;5.00;;;;;;;5.70;100.00;102428.97;5017968;28;20194;-75
2023/01/03 02:05:15;;;;;;;9.63;5.00;;;;;;;5.67;100.00;102433.88;4999155;28;20201;-76
2023/01/03 02:07:42;;;;;;;12.57;5.47;;;;;;;5.62;100.00;102437.78;4995465;28;20277;-74
2023/01/03 02:10:09;;;;;;;12.23;4.83;;;;;;;5.61;100.00;102433.50;5018074;28;20753;-76
2023/01/03 02:13:06;;;;;;;13.80;5.40;;;;;;;5.59;100.00;102445.19;5003578;28;20251;-76
2023/01/03 02:15:57;;;;;;;12.23;5.60;;;;;;;5.52;100.00;102443.91;5006384;28;20237;-76
2023/01/03 02:18:25;;;;;;;11.40;6.00;;;;;;;5.52;100.00;102446.47;5014184;28;20309;-75
2023/01/03 02:21:05;;;;;;;9.83;5.63;;;;;;;5.47;100.00;102442.75;5012027;28;20265;-75
2023/01/03 02:24:06;;;;;;;15.30;6.77;;;;;;;5.42;100.00;102451.72;5004724;28;20656;-74
2023/01/03 02:27:01;;;;;;;15.00;5.80;;;;;;;5.41;100.00;102455.06;5016875;28;20229;-74
2023/01/03 02:29:50;;;;;;;16.33;6.10;;;;;;;5.37;100.00;102448.00;4983418;28;20272;-74
2023/01/03 02:32:21;;;;;;;12.07;5.63;;;;;;;5.34;100.00;102457.94;5001209;28;20188;-74
2023/01/03 02:35:12;;;;;;;10.97;5.83;;;;;;;5.32;100.00;102449.38;5004239;28;20203;-74
2023/01/03 02:37:44;;;;;;;16.60;5.17;;;;;;;5.32;100.00;102456.97;4999807;28;20211;-74
2023/01/03 02:40:22;;;;;;;12.40;5.40;;;;;;;5.30;100.00;102463.59;4985167;28;20188;-74
2023/01/03 02:43:25;;;;;;;11.00;5.20;;;;;;;5.26;100.00;102460.78;5006767;28;20214;-74
2023/01/03 02:46:22;;;;;;;13.27;5.17;;;;;;;5.23;100.00;102465.63;4934517;28;20192;-74
2023/01/03 02:49:15;;;;;;;5.70;4.07;;;;;;;5.21;100.00;102463.00;4962861;28;20200;-74
2023/01/03 02:51:45;;;;;;;11.13;4.17;;;;;;;5.21;100.00;102463.00;4990587;28;20218;-75
2023/01/03 02:54:19;;;;;;;11.80;4.43;;;;;;;5.21;100.00;102463.00;5004707;28;20256;-75
2023/01/03 02:56:56;;;;;;;11.83;4.73;;;;;;;5.18;100.00;102467.00;5004919;28;20340;-75
2023/01/03 02:59:34;;;;;;;8.37;4.37;;;;;;;5.16;100.00;102455.88;5001417;28;20223;-74
2023/01/03 03:02:01;;;;;;;9.00;4.40;;;;;;;5.17;100.00;102462.69;5002195;28;20280;-74
2023/01/03 03:04:28;;;;;;;6.40;4.13;;;;;;;5.14;100.00;102455.75;4998114;28;20194;-74
2023/01/03 03:07:06;;;;;;;15.50;4.60;;;;;;;5.13;100.00;102466.69;4988363;28;20224;-74
2023/01/03 03:09:31;;;;;;;9.93;3.87;;;;;;;5.10;99.89;102466.47;4992499;28;20315;-74
2023/01/03 03:14:49;;;;;;;9.40;4.03;;;;;;;5.07;99.98;102468.81;5002555;28;20202;-74
2023/01/03 03:17:28;;;;;;;12.53;4.27;;;;;;;5.06;99.88;102466.19;5003502;28;20284;-75
2023/01/03 03:25:48;;;;;;;12.10;4.37;;;;;;;5.03;100.00;102479.56;4989050;28;20671;-74
2023/01/03 03:28:35;;;;;;;12.07;4.07;;;;;;;5.02;100.00;102471.84;5002317;28;20215;-74
2023/01/03 03:31:18;;;;;;;8.40;3.73;;;;;;;5.01;100.00;102482.78;4988304;28;20226;-74
2023/01/03 03:34:10;;;;;;;13.53;4.43;;;;;;;4.94;100.00;102486.53;5003669;28;20191;-74
2023/01/03 03:36:47;;;;;;;8.73;4.90;;;;;;;4.94;99.97;102491.63;4984141;28;20202;-74
2023/01/03 03:45:11;;;;;;;10.53;5.37;;;;;;;4.89;100.00;102490.44;4998555;28;20226;-74
2023/01/03 03:47:57;;;;;;;8.97;4.23;;;;;;;4.86;100.00;102487.69;4994778;28;20210;-74
2023/01/03 03:50:36;;;;;;;9.63;4.37;;;;;;;4.84;100.00;102496.81;5000732;28;20216;-74
2023/01/03 03:53:06;;;;;;;12.80;4.73;;;;;;;4.82;100.00;102497.50;4993809;28;20252;-74
2023/01/03 03:55:38;;;;;;;9.63;4.13;;;;;;;4.80;100.00;102499.94;5011120;28;20195;-74
2023/01/03 03:58:17;;;;;;;9.30;4.50;;;;;;;4.80;100.00;102506.66;5011013;28;20206;-74
2023/01/03 04:00:44;;;;;;;13.77;5.23;;;;;;;4.79;100.00;102508.31;5009735;28;20265;-74
2023/01/03 04:03:11;;;;;;;16.57;5.00;;;;;;;4.76;100.00;102517.38;4995793;28;20253;-74
2023/01/03 04:05:41;;;;;;;10.37;5.07;;;;;;;4.75;100.00;102518.16;5004414;28;20730;-74
2023/01/03 04:08:07;;;;;;;13.23;5.57;;;;;;;4.72;100.00;102523.91;4990068;28;20220;-74
2023/01/03 04:10:33;;;;;;;11.63;5.10;;;;;;;4.70;100.00;102525.44;4988226;28;20241;-74
2023/01/03 04:12:58;;;;;;;10.50;5.73;;;;;;;4.70;100.00;102522.91;5002590;28;20202;-74
2023/01/03 04:15:24;;;;;;;11.83;6.17;;;;;;;4.69;100.00;102521.13;5000904;28;20215;-74
2023/01/03 04:17:49;;;;;;;10.60;5.70;;;;;;;4.73;100.00;102523.13;5003133;28;20303;-74
2023/01/03 04:20:15;;;;;;;11.80;6.63;;;;;;;4.70;100.00;102525.44;5006168;28;20189;-75
2023/01/03 04:22:40;;;;;;;10.20;6.37;;;;;;;4.69;100.00;102532.97;4991294;28;20224;-75
2023/01/03 04:25:06;;;;;;;13.53;7.10;;;;;;;4.66;100.00;102528.56;4984054;28;20191;-74
2023/01/03 04:27:32;;;;;;;11.23;6.23;;;;;;;4.64;100.00;102530.09;4989563;28;20605;-75
2023/01/03 04:29:58;;;;;;;14.57;6.60;;;;;;;4.65;100.00;102531.00;5004192;28;20259;-74
2023/01/03 04:32:23;;;;;;;19.23;7.00;;;;;;;4.65;100.00;102531.84;5002443;28;20195;-74
2023/01/03 04:34:49;;;;;;;14.97;8.47;;;;;;;4.63;100.00;102528.34;5006373;28;20206;-74
2023/01/03 04:37:14;;;;;;;10.33;7.17;;;;;;;4.61;100.00;102531.53;4989969;28;20214;-74
2023/01/03 04:39:40;;;;;;;16.10;6.87;;;;;;;4.61;100.00;102541.69;5005107;28;20202;-74
2023/01/03 04:44:00;;;;;;;11.40;6.93;;;;;;;4.59;100.00;102540.69;5008735;28;20202;-75
2023/01/03 04:44:51;;;;;;;16.17;6.90;;;;;;;4.60;100.00;102535.72;5007163;28;20215;-74
2023/01/03 04:47:16;;;;;;;12.90;7.30;;;;;;;4.58;100.00;102546.53;4988518;28;20215;-74
2023/01/03 04:49:46;;;;;;;13.77;7.40;;;;;;;4.58;100.00;102549.97;4987616;28;20326;-75
2023/01/03 04:52:12;;;;;;;12.67;7.63;;;;;;;4.62;100.00;102539.25;4984081;28;20191;-74
2023/01/03 04:54:38;;;;;;;14.97;7.83;;;;;;;4.62;100.00;102540.91;5001948;28;20338;-74
2023/01/03 04:57:04;;;;;;;15.83;8.70;;;;;;;4.64;100.00;102541.88;5000584;28;20203;-74
2023/01/03 04:59:29;;;;;;;17.50;7.80;;;;;;;4.64;100.00;102545.31;4999932;28;20621;-74
2023/01/03 05:01:55;;;;;;;15.13;8.07;;;;;;;4.65;100.00;102548.75;5002483;28;20199;-73
2023/01/03 05:04:20;;;;;;;13.53;7.93;;;;;;;4.63;100.00;102558.78;5005883;28;20190;-74
2023/01/03 05:06:46;;;;;;;14.60;8.17;;;;;;;4.62;100.00;102556.13;5001947;28;20217;-74
2023/01/03 05:09:11;;;;;;;12.53;8.07;;;;;;;4.60;100.00;102558.53;5004289;28;20226;-74
2023/01/03 05:11:37;;;;;;;16.40;9.37;;;;;;;4.62;100.00;102563.72;5008273;28;20195;-75
2023/01/03 05:14:02;;;;;;;18.13;10.00;;;;;;;4.60;100.00;102560.22;4987608;28;20229;-75
2023/01/03 05:16:27;;;;;;;15.93;8.53;;;;;;;4.55;100.00;102552.28;4982632;28;20238;-74
2023/01/03 05:18:53;;;;;;;14.00;9.30;;;;;;;4.54;100.00;102565.72;5000648;28;20634;-74
2023/01/03 05:26:49;;;;;;;16.80;9.63;;;;;;;4.46;100.00;102573.59;5004984;28;20211;-75
2023/01/03 05:29:18;;;;;;;18.50;10.20;;;;;;;4.43;100.00;102573.34;5006439;28;20238;-74
2023/01/03 05:31:45;;;;;;;21.60;11.43;;;;;;;4.40;100.00;102584.16;4977576;28;20579;-74
2023/01/03 05:34:11;;;;;;;18.73;11.00;;;;;;;4.39;100.00;102573.91;4993026;28;20210;-74
2023/01/03 05:36:36;;;;;;;20.33;10.97;;;;;;;4.37;100.00;102572.94;5006679;28;20210;-74
2023/01/03 05:39:02;;;;;;;21.83;12.17;;;;;;;4.39;100.00;102584.03;5013819;28;20190;-74
2023/01/03 05:44:22;;;;;;;22.77;12.47;;;;;;;4.43;100.00;102586.03;4986228;28;20293;-74
2023/01/03 05:46:48;;;;;;;17.80;11.90;;;;;;;4.41;100.00;102585.03;5009199;28;20349;-74
2023/01/03 05:49:13;;;;;;;19.47;12.53;;;;;;;4.39;100.00;102592.53;5001871;28;20226;-74
2023/01/03 05:51:39;;;;;;;21.20;12.90;;;;;;;4.37;100.00;102588.13;4986400;28;20280;-74
2023/01/03 05:54:05;;;;;;;23.43;13.20;;;;;;;4.37;100.00;102601.69;4986493;28;20657;-74
2023/01/03 05:56:31;;;;;;;21.37;12.53;;;;;;;4.35;100.00;102599.81;4969112;28;20728;-74
2023/01/03 05:58:57;;;;;;;21.57;13.23;;;;;;;4.36;100.00;102601.56;4986294;28;20197;-74
2023/01/03 06:01:25;;;;;;;21.53;12.60;;;;;;;4.33;100.00;102599.69;4991669;28;20293;-75
2023/01/03 06:03:51;;;;;;;24.27;13.50;;;;;;;4.31;100.00;102593.63;5009378;28;20195;-74
2023/01/03 06:06:17;;;;;;;21.77;12.70;;;;;;;4.30;100.00;102603.66;4997783;28;20184;-75
2023/01/03 06:08:43;;;;;;;24.13;13.53;;;;;;;4.27;100.00;102601.78;4983702;28;20775;-74
2023/01/03 06:11:11;;;;;;;25.43;13.27;;;;;;;4.27;100.00;102608.50;4995303;28;20214;-74
2023/01/03 06:13:37;;;;;;;19.10;12.53;;;;;;;4.27;100.00;102603.44;5009124;28;20199;-74
2023/01/03 06:18:53;;;;;;;24.03;13.33;;;;;;;4.27;100.00;102606.84;5007740;28;20556;-75
2023/01/03 06:21:20;;;;;;;22.43;12.93;;;;;;;4.24;100.00;102616.75;4999224;28;20236;-75
2023/01/03 06:23:46;;;;;;;20.83;12.13;;;;;;;4.20;100.00;102617.34;4989803;28;20191;-74
2023/01/03 06:26:20;;;;;;;17.60;12.00;;;;;;;4.17;100.00;102622.19;4988928;28;20227;-74
2023/01/03 06:28:46;;;;;;;27.80;14.73;;;;;;;4.12;100.00;102620.06;5008474;28;20195;-74
2023/01/03 06:31:11;;;;;;;16.53;10.77;;;;;;;4.10;100.00;102624.16;4994272;28;20206;-74
2023/01/03 06:33:38;;;;;;;21.83;12.50;;;;;;;4.03;100.00;102627.88;4998434;28;20223;-74
2023/01/03 06:36:06;;;;;;;24.27;13.73;;;;;;;4.01;100.00;102628.53;4994757;28;20281;-74
2023/01/03 06:38:31;;;;;;;22.13;13.50;;;;;;;3.97;100.00;102639.22;5007911;28;20218;-75
2023/01/03 06:40:58;;;;;;;22.50;10.37;;;;;;;3.95;100.00;102626.44;4990457;28;20191;-74
2023/01/03 06:43:24;;;;;;;20.73;10.87;;;;;;;3.95;100.00;102638.25;5006940;28;20218;-74
2023/01/03 06:54:18;;;;;;;19.37;9.50;;;;;;;3.75;100.00;102657.00;5005590;28;20199;-76
2023/01/03 06:56:44;;;;;;;21.77;10.13;;;;;;;3.72;100.00;102664.34;4987812;28;20635;-74
2023/01/03 06:59:09;;;;;;;15.60;9.00;;;;;;;3.67;100.00;102668.19;5006520;28;20219;-74
2023/01/03 07:01:35;;;;;;;15.07;9.40;;;;;;;3.65;100.00;102668.84;5016297;28;20285;-74
2023/01/03 07:04:01;;;;;;;17.00;9.50;;;;;;;3.62;100.00;102674.56;5006038;28;20287;-74
2023/01/03 07:06:26;;;;;;;14.93;8.43;;;;;;;3.59;100.00;102681.91;5013742;28;20195;-74
2023/01/03 07:08:52;;;;;;;17.43;9.00;;;;;;;3.54;100.00;102678.16;4988419;28;20199;-74
2023/01/03 07:11:17;;;;;;;15.47;8.03;;;;;;;3.47;100.00;102691.13;5012363;28;20201;-74
2023/01/03 07:13:58;;;;;;;14.00;8.27;;;;;;;3.44;100.00;102692.50;5007970;28;20548;-74
2023/01/03 07:16:31;;;;;;;14.43;8.53;;;;;;;3.43;100.00;102699.25;5008424;28;20310;-74
2023/01/03 07:18:57;;;;;;;11.43;8.20;;;;;;;3.42;100.00;102696.59;5010182;28;20535;-74
2023/01/03 07:21:24;;;;;;;13.47;8.50;;;;;;;3.43;100.00;102701.78;5000580;28;20228;-75
2023/01/03 07:23:57;;;;;;;15.20;8.17;;;;;;;3.42;100.00;102697.47;5005280;28;20223;-74
2023/01/03 07:26:24;;;;;;;16.37;7.97;;;;;;;3.42;100.00;102710.13;4990784;28;20199;-74
2023/01/03 07:28:50;;;;;;;14.53;7.83;;;;;;;3.41;100.00;102713.41;5003435;28;20198;-74
2023/01/03 07:31:16;;;;;;;14.97;7.13;;;;;;;3.40;100.00;102710.78;4992409;28;20196;-74
2023/01/03 07:33:43;;;;;;;18.03;8.00;;;;;;;3.39;100.00;102714.97;4990643;28;20221;-74
2023/01/03 07:36:11;;;;;;;13.77;7.43;;;;;;;3.42;100.00;102719.38;5002051;28;20806;-74
2023/01/03 07:38:37;;;;;;;11.13;6.83;;;;;;;3.41;100.00;102710.00;5011616;28;20221;-74
2023/01/03 07:41:04;;;;;;;14.20;7.00;;;;;;;3.41;100.00;102722.69;4995712;28;20188;-74
2023/01/03 07:43:35;;;;;;;11.67;6.93;;;;;;;3.41;100.00;102718.47;4992367;28;20202;-74
2023/01/03 07:46:23;;;;;;;15.80;7.20;;;;;;;3.40;100.00;102713.31;5010905;28;20238;-74
2023/01/03 07:48:50;;;;;;;12.67;7.03;;;;;;;3.42;100.00;102726.97;4995504;28;20678;-74
2023/01/03 07:51:19;;;;;;;12.20;7.27;;;;;;;3.41;100.00;102731.13;5013651;28;20206;-74
2023/01/03 07:53:48;;;;;;;15.17;7.13;;;;;;;3.44;100.00;102733.00;5008515;28;20221;-74
2023/01/03 07:56:16;;;;;;;13.17;7.20;;;;;;;3.45;100.00;102737.34;4995112;28;20191;-74
2023/01/03 07:58:42;;;;;;;13.43;7.57;;;;;;;3.47;100.00;102740.88;4985660;28;20220;-74
2023/01/03 08:01:11;;;;;;;16.17;7.13;;;;;;;3.48;100.00;102732.50;4999930;28;20226;-74
2023/01/03 08:03:38;;;;;;;13.33;6.87;;;;;;;3.48;100.00;102729.97;5003922;28;20204;-74
2023/01/03 08:06:06;;;;;;;15.60;6.87;;;;;;;3.48;100.00;102733.38;5012194;28;20187;-74
2023/01/03 08:08:32;;;;;;;13.77;7.53;;;;;;;3.50;100.00;102738.56;4998752;28;20210;-74
2023/01/03 08:13:43;;;;;;;12.20;6.50;;;;;;;3.50;100.00;102744.50;4993345;28;20333;-74
2023/01/03 08:16:11;;;;;;;15.40;6.87;;;;;;;3.50;100.00;102739.44;4986127;28;20241;-74
2023/01/03 08:18:38;;;;;;;16.67;7.27;;;;;;;3.54;100.00;102746.50;5004888;28;20630;-74
2023/01/03 08:21:05;;;;;;;13.30;7.33;;;;;;;3.57;100.00;102746.75;4993737;28;20618;-74
2023/01/03 08:23:30;;;;;;;14.33;7.13;;;;;;;3.63;100.00;102746.38;5006984;28;20202;-74
2023/01/03 08:26:04;;;;;;;14.67;8.03;;;;;;;3.67;100.00;102749.25;4995849;28;20195;-74
2023/01/03 08:28:30;;;;;;;21.00;9.60;;;;;;;3.71;100.00;102748.72;5003973;28;20247;-74
2023/01/03 08:30:57;;;;;;;20.63;8.40;;;;;;;3.72;100.00;102742.88;4996069;28;20295;-74
2023/01/03 08:33:24;;;;;;;15.00;7.47;;;;;;;3.77;100.00;102743.25;4993486;28;20624;-74
2023/01/03 08:35:54;;;;;;;14.60;7.20;;;;;;;3.81;100.00;102750.28;4985439;28;20199;-74
2023/01/03 08:38:33;;;;;;;11.43;6.90;;;;;;;3.85;100.00;102755.72;4993846;28;20219;-74
2023/01/03 08:41:00;;;;;;;12.47;6.70;;;;;;;3.91;100.00;102757.84;4986964;28;20288;-74
2023/01/03 08:43:29;;;;;;;13.80;6.90;;;;;;;4.04;100.00;102760.53;5015464;28;20561;-74
2023/01/03 08:45:55;;;;;;;11.37;6.43;;;;;;;4.18;99.88;102755.75;4993309;28;20192;-74
2023/01/03 08:48:22;;;;;;;15.17;6.80;;;;;;;4.36;99.92;102769.78;5011064;28;20222;-74
2023/01/03 08:50:48;;;;;;;12.40;6.93;;;;;;;4.44;99.20;102767.81;5009182;28;20270;-74
2023/01/03 08:53:13;;;;;;;12.30;6.90;;;;;;;4.46;99.13;102763.78;4993257;28;20226;-74
2023/01/03 08:55:39;;;;;;;15.07;6.87;;;;;;;4.48;99.08;102769.81;5012542;28;20222;-74
2023/01/03 08:58:05;;;;;;;13.13;6.63;;;;;;;4.51;98.82;102770.06;5014728;28;20684;-74
2023/01/03 09:00:31;;;;;;;14.97;7.10;;;;;;;4.49;98.94;102772.47;5010217;28;20199;-74
2023/01/03 09:03:00;;;;;;;16.93;7.30;;;;;;;4.50;99.00;102770.81;5016658;28;20225;-74
2023/01/03 09:05:27;;;;;;;14.30;6.73;;;;;;;4.54;98.92;102778.78;5006311;28;20218;-74
2023/01/03 09:07:54;;;;;;;14.10;7.77;;;;;;;4.53;98.93;102781.19;5000076;28;20265;-74
2023/01/03 09:10:20;;;;;;;14.17;7.13;;;;;;;4.53;99.09;102786.25;5013335;28;20727;-74
2023/01/03 09:12:45;;;;;;;15.37;7.00;;;;;;;4.61;98.79;102785.19;4999088;28;20196;-74
2023/01/03 09:15:11;;;;;;;19.97;7.87;;;;;;;4.64;98.66;102786.28;5001554;28;20287;-74
2023/01/03 09:17:36;;;;;;;16.43;6.80;;;;;;;4.69;98.85;102787.50;5008514;28;20261;-74
2023/01/03 09:20:02;;;;;;;13.60;7.00;;;;;;;4.72;98.56;102794.47;4991488;28;20196;-74
2023/01/03 09:22:27;;;;;;;17.77;7.13;;;;;;;4.78;98.53;102789.88;4997355;28;20278;-74
2023/01/03 09:24:54;;;;;;;15.30;7.43;;;;;;;4.82;98.44;102800.34;4999179;28;20222;-74
2023/01/03 09:27:20;;;;;;;13.50;6.70;;;;;;;4.88;98.29;102789.75;5001179;28;20217;-75
2023/01/03 09:29:47;;;;;;;13.27;6.67;;;;;;;4.96;98.17;102802.22;5006704;28;20226;-74
2023/01/03 09:32:13;;;;;;;12.13;6.77;;;;;;;5.03;97.38;102795.94;4999570;28;20241;-74
2023/01/03 09:34:38;;;;;;;12.23;7.17;;;;;;;5.10;97.64;102796.50;4999057;28;20276;-74
2023/01/03 09:37:04;;;;;;;14.07;7.87;;;;;;;5.17;97.98;102803.78;5013146;28;20211;-74
2023/01/03 09:39:29;;;;;;;15.80;7.63;;;;;;;5.28;97.12;102802.91;5018375;28;20229;-73
2023/01/03 09:44:39;;;;;;;14.03;7.50;;;;;;;5.70;95.92;102803.41;5009107;28;20202;-74
2023/01/03 09:47:05;;;;;;;10.17;6.67;;;;;;;5.98;94.31;102793.53;4993235;28;20227;-75
2023/01/03 09:49:34;;;;;;;12.57;7.67;;;;;;;5.89;94.02;102798.84;4996908;28;20230;-74
2023/01/03 10:06:06;;;;;;;14.90;7.97;;;;;;;6.62;90.82;102802.16;5005881;28;20194;-74
2023/01/03 10:08:48;;;;;;;13.57;7.23;;;;;;;6.83;90.17;102791.75;5003398;28;20219;-74
2023/01/03 10:11:42;;;;;;;14.90;8.07;;;;;;;6.98;89.73;102808.03;4995580;28;20230;-73
2023/01/03 10:14:38;;;;;;;16.23;8.33;;;;;;;7.11;88.95;102800.41;5007095;28;20278;-74
2023/01/03 10:17:10;;;;;;;12.43;7.90;;;;;;;7.26;87.93;102806.47;5003652;28;20584;-73
2023/01/03 10:19:55;;;;;;;13.97;7.60;;;;;;;7.57;86.09;102796.53;5013410;28;20274;-73
2023/01/03 10:22:25;;;;;;;11.97;7.07;;;;;;;7.66;85.01;102797.13;5019571;28;20676;-74
2023/01/03 10:25:03;;;;;;;13.00;7.27;;;;;;;8.03;83.46;102798.59;4999537;28;20206;-74
2023/01/03 10:27:32;;;;;;;14.17;7.70;;;;;;;8.27;82.84;102795.88;5015457;28;20221;-73
2023/01/03 10:30:05;;;;;;;9.27;6.57;;;;;;;8.35;80.86;102792.13;5014040;28;20331;-73
2023/01/03 10:32:57;;;;;;;11.83;7.33;;;;;;;8.30;81.08;102795.19;5018098;28;20959;-74
2023/01/03 10:35:31;;;;;;;10.57;6.43;;;;;;;8.66;79.80;102784.59;5015122;28;20202;-73
2023/01/03 10:37:57;;;;;;;12.40;7.03;;;;;;;12.22;69.56;102765.53;5007531;28;20207;-74
2023/01/03 10:40:46;;;;;;;8.50;6.17;;;;;;;15.64;55.12;102746.56;5021377;28;20198;-73
2023/01/03 10:43:19;;;;;;;9.03;6.20;;;;;;;16.61;50.11;102741.56;4986344;28;20252;-74
2023/01/03 10:46:15;;;;;;;10.30;6.00;;;;;;;12.81;59.33;102751.81;5011875;28;21006;-74
2023/01/03 10:48:49;;;;;;;9.43;6.27;;;;;;;11.21;63.33;102763.41;5012380;28;20281;-74
2023/01/03 10:51:29;;;;;;;11.83;6.53;;;;;;;10.93;66.32;102764.56;5013988;28;20210;-73
2023/01/03 10:53:57;;;;;;;12.13;6.30;;;;;;;10.71;66.71;102770.34;5015031;28;20226;-73
2023/01/03 10:56:24;;;;;;;9.53;6.10;;;;;;;10.91;66.68;102766.16;5000347;28;20238;-73
2023/01/03 10:59:11;;;;;;;11.03;6.07;;;;;;;11.23;64.89;102766.91;5011980;28;20205;-73
2023/01/03 11:01:37;;;;;;;8.07;5.20;;;;;;;11.40;63.53;102765.16;4992933;28;20190;-73
2023/01/03 11:04:14;;;;;;;12.23;5.70;;;;;;;11.74;63.18;102753.09;5008208;28;20543;-74
2023/01/03 11:07:00;;;;;;;7.83;5.67;;;;;;;12.38;60.80;102753.41;5008217;28;20247;-73
2023/01/03 11:09:48;;;;;;;8.67;5.50;;;;;;;12.70;59.79;102757.31;4995709;28;20218;-74
2023/01/03 11:12:23;;;;;;;6.17;4.83;;;;;;;17.04;47.36;102728.81;5017674;28;20198;-74
2023/01/03 11:14:56;;;;;;;9.73;4.53;;;;;;;19.76;40.15;102716.50;5004942;28;20667;-75
2023/01/03 11:17:23;;;;;;;7.07;4.17;;;;;;;19.88;38.18;102723.59;4993434;28;20305;-74
2023/01/03 11:19:50;;;;;;;5.70;3.90;;;;;;;20.94;36.76;102714.25;5015623;28;20218;-76
2023/01/03 11:22:25;;;;;;;6.07;4.43;;;;;;;21.53;35.40;102714.59;5018488;28;20194;-75
2023/01/03 11:25:03;;;;;;;6.90;4.28;;;;;;;21.61;34.38;102712.91;5015329;28;20305;-76
2023/01/03 11:27:59;;;;;;;8.13;4.18;;;;;;;21.47;34.71;102714.59;5002646;28;20215;-75
2023/01/03 11:30:43;;;;;;;6.22;3.58;;;;;;;21.76;34.34;102719.09;5012133;28;20700;-74
2023/01/03 11:33:37;;;;;;;5.07;3.90;;;;;;;21.55;34.22;102712.84;5010521;28;20657;-75
2023/01/03 11:36:09;;;;;;;4.65;3.38;;;;;;;21.21;34.51;102706.63;4998906;28;20276;-75
2023/01/03 11:38:47;;;;;;;6.45;3.58;;;;;;;21.18;34.25;102709.19;5002959;28;20330;-75
2023/01/03 11:41:15;;;;;;;7.03;3.92;;;;;;;20.31;35.09;102710.22;5009961;28;20273;-75
2023/01/03 11:44:12;;;;;;;6.30;3.65;;;;;;;20.36;35.37;102705.94;5008647;28;20194;-75
2023/01/03 11:47:13;;;;;;;4.82;4.10;;;;;;;18.94;37.37;102711.03;5012277;28;20284;-75
2023/01/03 11:49:54;;;;;;;5.72;3.97;;;;;;;19.58;37.12;102705.03;5012779;28;20213;-75
2023/01/03 11:52:43;;;;;;;4.70;3.72;;;;;;;19.37;35.67;102699.53;4998801;28;20214;-75
2023/01/03 11:55:30;;;;;;;5.57;3.45;;;;;;;19.20;36.90;102703.63;5010972;28;20199;-75
2023/01/03 11:58:15;;;;;;;9.02;4.22;;;;;;;18.36;37.81;102700.53;5010612;28;20207;-74
2023/01/03 12:01:14;;;;;;;8.13;3.92;;;;;;;17.76;39.88;102699.38;5011862;28;20190;-75
2023/01/03 12:04:07;;;;;;;6.90;4.47;;;;;;;18.01;39.18;102698.97;5012070;28;20202;-75
2023/01/03 12:06:50;;;;;;;6.55;4.80;;;;;;;18.38;40.11;102708.34;5004296;28;20198;-75
2023/01/03 12:09:25;;;;;;;6.30;4.57;;;;;;;18.25;39.42;102699.44;5015565;28;20202;-75
2023/01/03 12:12:09;;;;;;;7.73;5.10;;;;;;;17.30;41.90;102704.41;5003342;28;20197;-75
2023/01/03 12:14:40;;;;;;;6.40;4.93;;;;;;;17.06;41.85;102713.31;5016708;28;20221;-75
2023/01/03 12:17:15;;;;;;;7.03;5.13;;;;;;;16.37;43.05;102706.41;5011567;28;20813;-74
2023/01/03 12:19:48;;;;;;;11.67;5.53;;;;;;;16.59;42.57;102712.22;5023701;28;20572;-75
2023/01/03 12:22:23;;;;;;;7.97;5.20;;;;;;;17.24;43.09;102703.38;5003847;28;20274;-74
2023/01/03 12:25:07;;;;;;;7.93;5.40;;;;;;;17.21;42.75;102693.84;5010308;28;20194;-74
2023/01/03 12:27:41;;;;;;;10.47;5.50;;;;;;;16.27;44.31;102692.38;5025809;28;20209;-74
2023/01/03 12:30:29;;;;;;;10.73;6.17;;;;;;;16.03;44.80;102698.59;5002361;28;20214;-74
2023/01/03 12:33:00;;;;;;;8.80;5.37;;;;;;;15.29;46.09;102701.56;5004021;28;20198;-74
2023/01/03 12:35:45;;;;;;;7.37;4.90;;;;;;;16.11;45.57;102687.63;5003855;28;20194;-74